Time;durP1;ratioP1;P1;durP2;ratioP2;P2;SDS_P1;SDS_P2;PMS_P1;PMS_P2;Temp;Humidity;BMP_temperature;BMP_pressure;BME280_temperature;BME280_humidity;BME280_pressure;Samples;Min_cycle;Max_cycle;Signal;HPM_P1;HPM_P2
2022/03/19 00:00:51;;;;;;;16.52;5.82;;;;;;;;;;5017696;28;20501;-89
2022/03/19 00:03:18;;;;;;;18.52;6.72;;;;;;;;;;5018664;28;20576;-89
2022/03/19 00:05:45;;;;;;;15.85;5.70;;;;;;;;;;5018050;28;20064;-89
2022/03/19 00:08:11;;;;;;;16.55;5.25;;;;;;;;;;5015368;28;20049;-89
2022/03/19 00:10:37;;;;;;;17.25;5.85;;;;;;;;;;5017074;28;20139;-89
2022/03/19 00:13:04;;;;;;;15.35;5.18;;;;;;;;;;5015931;28;20485;-89
2022/03/19 00:15:30;;;;;;;17.48;5.13;;;;;;;;;;5016144;28;20122;-89
2022/03/19 00:17:57;;;;;;;17.67;5.38;;;;;;;;;;5016460;28;20048;-89
2022/03/19 00:20:23;;;;;;;12.38;4.93;;;;;;;;;;5016282;28;20049;-89
2022/03/19 00:22:49;;;;;;;11.52;4.72;;;;;;;;;;5020220;28;20128;-89
2022/03/19 00:25:15;;;;;;;13.95;5.07;;;;;;;;;;5014976;28;20057;-89
2022/03/19 00:27:41;;;;;;;18.20;4.95;;;;;;;;;;5014804;28;20509;-89
2022/03/19 00:30:08;;;;;;;12.63;4.47;;;;;;;;;;5014257;28;20037;-89
2022/03/19 00:32:34;;;;;;;13.80;4.60;;;;;;;;;;5014546;28;20465;-89
2022/03/19 00:35:00;;;;;;;14.77;4.20;;;;;;;;;;5014587;28;20049;-89
2022/03/19 00:37:26;;;;;;;11.93;4.70;;;;;;;;;;5014817;28;20571;-89
2022/03/19 00:39:52;;;;;;;15.60;4.43;;;;;;;;;;5014156;28;20112;-88
2022/03/19 00:42:18;;;;;;;14.80;4.65;;;;;;;;;;5014396;28;20042;-88
2022/03/19 00:44:44;;;;;;;15.18;5.13;;;;;;;;;;5013729;28;20441;-89
2022/03/19 00:47:10;;;;;;;13.27;4.70;;;;;;;;;;5014329;28;20065;-89
2022/03/19 00:49:36;;;;;;;14.82;4.65;;;;;;;;;;5013529;28;20069;-89
2022/03/19 00:52:04;;;;;;;16.95;5.15;;;;;;;;;;5014687;28;20038;-89
2022/03/19 00:54:30;;;;;;;14.27;4.22;;;;;;;;;;5013189;28;20057;-89
2022/03/19 00:56:56;;;;;;;13.00;3.80;;;;;;;;;;5013403;28;20042;-89
2022/03/19 00:59:22;;;;;;;13.95;4.43;;;;;;;;;;5013019;28;20034;-89
2022/03/19 01:01:48;;;;;;;12.18;4.43;;;;;;;;;;5013804;28;20718;-89
2022/03/19 01:04:14;;;;;;;14.63;4.13;;;;;;;;;;5013506;28;20042;-89
2022/03/19 01:06:40;;;;;;;12.60;4.13;;;;;;;;;;5013386;28;20490;-89
2022/03/19 01:09:06;;;;;;;12.05;3.95;;;;;;;;;;5018775;28;20044;-89
2022/03/19 01:11:32;;;;;;;16.98;4.07;;;;;;;;;;5014582;28;20494;-89
2022/03/19 01:13:58;;;;;;;12.10;3.53;;;;;;;;;;5013113;28;20048;-89
2022/03/19 01:16:27;;;;;;;9.60;3.38;;;;;;;;;;5013822;28;20038;-89
2022/03/19 01:18:53;;;;;;;10.48;3.47;;;;;;;;;;5013079;28;20069;-89
2022/03/19 01:21:19;;;;;;;16.52;4.38;;;;;;;;;;5013471;28;20064;-89
2022/03/19 01:23:46;;;;;;;14.10;4.45;;;;;;;;;;5012901;28;20049;-89
2022/03/19 01:26:12;;;;;;;9.18;3.60;;;;;;;;;;5013292;28;20050;-89
2022/03/19 01:28:38;;;;;;;11.60;3.92;;;;;;;;;;5013078;28;20041;-89
2022/03/19 01:31:04;;;;;;;10.05;3.58;;;;;;;;;;5012698;28;20660;-89
2022/03/19 01:33:30;;;;;;;12.15;3.55;;;;;;;;;;5012876;28;20131;-89
2022/03/19 01:35:56;;;;;;;12.18;3.85;;;;;;;;;;5012815;28;20116;-89
2022/03/19 01:38:22;;;;;;;13.35;3.88;;;;;;;;;;5012741;28;20069;-89
2022/03/19 01:40:48;;;;;;;13.13;3.90;;;;;;;;;;5012590;28;20128;-89
2022/03/19 01:43:14;;;;;;;14.25;4.80;;;;;;;;;;5013001;28;20038;-89
2022/03/19 01:45:40;;;;;;;11.32;3.58;;;;;;;;;;5015338;28;20040;-89
2022/03/19 01:48:06;;;;;;;14.27;4.28;;;;;;;;;;5032662;28;20077;-89
2022/03/19 01:50:32;;;;;;;13.13;3.53;;;;;;;;;;5032432;28;20034;-88
2022/03/19 01:52:59;;;;;;;10.27;3.53;;;;;;;;;;5032529;28;20107;-89
2022/03/19 01:55:26;;;;;;;13.48;4.43;;;;;;;;;;5033591;28;20500;-89
2022/03/19 01:57:53;;;;;;;10.43;3.90;;;;;;;;;;5033136;28;20041;-89
2022/03/19 02:00:23;;;;;;;13.80;3.90;;;;;;;;;;5033742;28;20128;-89
2022/03/19 02:02:50;;;;;;;14.82;3.75;;;;;;;;;;5032667;28;20041;-89
2022/03/19 02:05:18;;;;;;;14.05;4.22;;;;;;;;;;5033251;28;20041;-89
2022/03/19 02:07:45;;;;;;;12.15;3.30;;;;;;;;;;5033180;28;20046;-89
2022/03/19 02:10:12;;;;;;;15.25;4.28;;;;;;;;;;5033522;28;20481;-89
2022/03/19 02:12:38;;;;;;;15.23;4.07;;;;;;;;;;5033035;28;20033;-89
2022/03/19 02:15:04;;;;;;;12.52;3.58;;;;;;;;;;5032755;28;20045;-89
2022/03/19 02:17:31;;;;;;;9.98;4.07;;;;;;;;;;5033335;28;20080;-89
2022/03/19 02:19:57;;;;;;;14.70;3.55;;;;;;;;;;5034474;28;20041;-89
2022/03/19 02:22:27;;;;;;;11.50;3.50;;;;;;;;;;5033057;28;20049;-89
2022/03/19 02:27:38;;;;;;;13.00;4.35;;;;;;;;;;5013851;28;20045;-89
2022/03/19 02:30:06;;;;;;;12.27;4.10;;;;;;;;;;5013153;28;20045;-89
2022/03/19 02:32:33;;;;;;;13.35;4.32;;;;;;;;;;5016464;28;20041;-89
2022/03/19 02:34:59;;;;;;;13.35;4.43;;;;;;;;;;5016789;28;20038;-88
2022/03/19 02:37:25;;;;;;;11.23;4.15;;;;;;;;;;5016376;28;20052;-89
2022/03/19 02:39:51;;;;;;;13.20;4.05;;;;;;;;;;5016980;28;20041;-89
2022/03/19 02:42:18;;;;;;;12.23;4.25;;;;;;;;;;5016034;28;20038;-89
2022/03/19 02:44:44;;;;;;;12.38;4.30;;;;;;;;;;5017140;28;20042;-89
2022/03/19 02:47:10;;;;;;;15.93;4.40;;;;;;;;;;5017933;28;20412;-89
2022/03/19 02:49:36;;;;;;;11.68;4.40;;;;;;;;;;5017207;28;20091;-88
2022/03/19 02:52:03;;;;;;;14.30;4.30;;;;;;;;;;5000538;28;20042;-89
2022/03/19 02:54:30;;;;;;;15.93;4.60;;;;;;;;;;4999621;28;20188;-89
2022/03/19 02:56:57;;;;;;;14.02;4.88;;;;;;;;;;5015808;28;20057;-89
2022/03/19 02:59:27;;;;;;;13.52;4.80;;;;;;;;;;5015240;28;20485;-89
2022/03/19 03:02:04;;;;;;;13.23;3.95;;;;;;;;;;4999093;28;20042;-88
2022/03/19 03:04:31;;;;;;;20.73;4.63;;;;;;;;;;4999357;28;20050;-88
2022/03/19 03:06:58;;;;;;;14.50;4.32;;;;;;;;;;4999141;28;20544;-89
2022/03/19 03:09:25;;;;;;;12.30;4.53;;;;;;;;;;5016042;28;20084;-89
2022/03/19 03:11:52;;;;;;;13.05;4.28;;;;;;;;;;5035864;28;20063;-88
2022/03/19 03:14:20;;;;;;;12.80;5.10;;;;;;;;;;5038518;28;20090;-89
2022/03/19 03:16:47;;;;;;;13.57;4.93;;;;;;;;;;5038457;28;20037;-90
2022/03/19 03:19:13;;;;;;;16.33;5.10;;;;;;;;;;5039427;28;20049;-89
2022/03/19 03:21:42;;;;;;;14.88;5.90;;;;;;;;;;5034698;28;20044;-89
2022/03/19 03:24:09;;;;;;;12.65;4.63;;;;;;;;;;5035148;28;20049;-89
2022/03/19 03:26:35;;;;;;;15.02;5.28;;;;;;;;;;5034851;28;20140;-89
2022/03/19 03:29:01;;;;;;;13.95;4.78;;;;;;;;;;5034386;28;20045;-89
2022/03/19 03:31:27;;;;;;;16.50;5.60;;;;;;;;;;5034610;28;20559;-89
2022/03/19 03:33:54;;;;;;;13.70;5.40;;;;;;;;;;5034475;28;20091;-88
2022/03/19 03:36:20;;;;;;;13.70;5.03;;;;;;;;;;5034116;28;20037;-89
2022/03/19 03:38:46;;;;;;;19.75;5.85;;;;;;;;;;5035136;28;20440;-89
2022/03/19 03:41:13;;;;;;;15.82;4.80;;;;;;;;;;5034279;28;20037;-89
2022/03/19 03:43:39;;;;;;;17.08;5.97;;;;;;;;;;5030833;28;20038;-88
2022/03/19 03:46:05;;;;;;;15.00;5.45;;;;;;;;;;5030792;28;20041;-89
2022/03/19 03:48:31;;;;;;;14.30;5.50;;;;;;;;;;5031130;28;20126;-89
2022/03/19 03:50:58;;;;;;;16.30;5.53;;;;;;;;;;5030573;28;20044;-89
2022/03/19 03:53:25;;;;;;;14.40;5.50;;;;;;;;;;5030791;28;20497;-89
2022/03/19 03:55:51;;;;;;;10.52;4.72;;;;;;;;;;5030595;28;20046;-89
2022/03/19 03:58:17;;;;;;;12.55;5.38;;;;;;;;;;5030739;28;20042;-89
2022/03/19 04:00:43;;;;;;;13.82;5.13;;;;;;;;;;5030575;28;20513;-88
2022/03/19 04:03:09;;;;;;;18.88;6.68;;;;;;;;;;5030314;28;20046;-88
2022/03/19 04:05:35;;;;;;;15.15;5.82;;;;;;;;;;5030264;28;20041;-89
2022/03/19 04:08:03;;;;;;;13.25;5.70;;;;;;;;;;5030040;28;20084;-89
2022/03/19 04:10:30;;;;;;;14.13;5.75;;;;;;;;;;5031110;28;20045;-89
2022/03/19 04:12:56;;;;;;;15.45;5.35;;;;;;;;;;5031124;28;20041;-89
2022/03/19 04:15:22;;;;;;;17.35;6.07;;;;;;;;;;5031192;28;20037;-89
2022/03/19 04:17:48;;;;;;;15.05;5.50;;;;;;;;;;5030783;28;20037;-89
2022/03/19 04:20:15;;;;;;;13.23;5.30;;;;;;;;;;5030997;28;20490;-89
2022/03/19 04:22:42;;;;;;;17.58;5.60;;;;;;;;;;5030611;28;20081;-89
2022/03/19 04:25:13;;;;;;;15.82;5.70;;;;;;;;;;5030843;28;20054;-89
2022/03/19 04:27:40;;;;;;;16.67;6.85;;;;;;;;;;5030393;28;20034;-89
2022/03/19 04:30:06;;;;;;;17.67;5.95;;;;;;;;;;5030007;28;20046;-89
2022/03/19 04:32:32;;;;;;;15.88;5.82;;;;;;;;;;5030270;28;20037;-89
2022/03/19 04:36:29;;;;;;;14.20;6.28;;;;;;;;;;5031133;28;20084;-88
2022/03/19 04:37:44;;;;;;;12.98;6.53;;;;;;;;;;5030788;28;20076;-88
2022/03/19 04:40:10;;;;;;;14.45;6.22;;;;;;;;;;5040928;28;20038;-89
2022/03/19 04:42:36;;;;;;;21.38;7.82;;;;;;;;;;5015730;28;20099;-89
2022/03/19 04:45:02;;;;;;;14.38;6.57;;;;;;;;;;5013616;28;20045;-89
2022/03/19 04:47:29;;;;;;;15.23;7.32;;;;;;;;;;5025403;28;20044;-89
2022/03/19 04:49:55;;;;;;;16.23;6.78;;;;;;;;;;5019598;28;20037;-89
2022/03/19 04:52:21;;;;;;;16.90;7.25;;;;;;;;;;5014232;28;20052;-88
2022/03/19 04:54:47;;;;;;;13.02;6.32;;;;;;;;;;5013327;28;20105;-89
2022/03/19 04:57:13;;;;;;;18.70;7.25;;;;;;;;;;5013715;28;20052;-89
2022/03/19 04:59:39;;;;;;;15.07;7.50;;;;;;;;;;5021907;28;20052;-88
2022/03/19 05:02:05;;;;;;;17.17;7.45;;;;;;;;;;5013201;28;20452;-88
2022/03/19 05:04:31;;;;;;;14.98;6.97;;;;;;;;;;5017417;28;20167;-88
2022/03/19 05:06:57;;;;;;;17.88;6.82;;;;;;;;;;5033013;28;20045;-88
2022/03/19 05:12:08;;;;;;;17.00;7.68;;;;;;;;;;5033155;28;20045;-88
2022/03/19 05:14:34;;;;;;;18.40;8.20;;;;;;;;;;5026877;28;20108;-88
2022/03/19 05:16:59;;;;;;;17.30;8.05;;;;;;;;;;5013043;28;20073;-89
2022/03/19 05:19:25;;;;;;;17.58;7.88;;;;;;;;;;5013603;28;20038;-88
2022/03/19 05:21:51;;;;;;;16.63;8.63;;;;;;;;;;5013803;28;20046;-88
2022/03/19 05:24:19;;;;;;;18.08;8.35;;;;;;;;;;5012393;28;20414;-88
2022/03/19 05:26:45;;;;;;;19.30;8.48;;;;;;;;;;5021149;28;20041;-88
2022/03/19 05:29:12;;;;;;;15.88;8.43;;;;;;;;;;5026506;28;20048;-88
2022/03/19 05:31:38;;;;;;;16.33;8.35;;;;;;;;;;5019327;28;20034;-89
2022/03/19 05:36:49;;;;;;;15.68;7.97;;;;;;;;;;5014510;28;20045;-88
2022/03/19 05:39:15;;;;;;;17.98;8.57;;;;;;;;;;4997920;28;20061;-88
2022/03/19 05:41:41;;;;;;;15.10;8.38;;;;;;;;;;5013125;28;20049;-88
2022/03/19 05:44:07;;;;;;;17.27;9.25;;;;;;;;;;5012812;28;20042;-88
2022/03/19 05:46:33;;;;;;;18.92;9.20;;;;;;;;;;5012628;28;20096;-88
2022/03/19 05:48:59;;;;;;;16.45;8.95;;;;;;;;;;5011548;28;20045;-88
2022/03/19 05:51:25;;;;;;;19.67;9.75;;;;;;;;;;5011705;28;20485;-88
2022/03/19 05:53:51;;;;;;;19.55;9.13;;;;;;;;;;5012430;28;20125;-88
2022/03/19 05:56:17;;;;;;;21.85;10.77;;;;;;;;;;5022313;28;20416;-88
2022/03/19 05:58:43;;;;;;;21.00;9.57;;;;;;;;;;5016983;28;20498;-88
2022/03/19 06:01:09;;;;;;;22.95;9.80;;;;;;;;;;5015321;28;20059;-88
2022/03/19 06:03:35;;;;;;;19.42;10.90;;;;;;;;;;5031394;28;20041;-89
2022/03/19 06:06:01;;;;;;;17.73;9.73;;;;;;;;;;5035159;28;20719;-89
2022/03/19 06:08:28;;;;;;;19.98;10.60;;;;;;;;;;5053747;28;20746;-89
2022/03/19 06:10:54;;;;;;;27.73;11.25;;;;;;;;;;5037127;28;20068;-89
2022/03/19 06:13:20;;;;;;;17.70;10.23;;;;;;;;;;5033541;28;20490;-89
2022/03/19 06:15:46;;;;;;;16.85;10.30;;;;;;;;;;5033493;28;20041;-89
2022/03/19 06:18:12;;;;;;;20.58;11.20;;;;;;;;;;5033409;28;20049;-89
2022/03/19 06:20:38;;;;;;;26.10;13.32;;;;;;;;;;5033914;28;20047;-89
2022/03/19 06:23:04;;;;;;;22.23;11.25;;;;;;;;;;5034429;28;20077;-89
2022/03/19 06:25:30;;;;;;;19.38;11.27;;;;;;;;;;5031696;28;20057;-88
2022/03/19 06:27:56;;;;;;;23.15;12.27;;;;;;;;;;5032803;28;20038;-88
2022/03/19 06:30:24;;;;;;;22.77;13.30;;;;;;;;;;5032259;28;20038;-87
2022/03/19 06:32:50;;;;;;;22.90;12.05;;;;;;;;;;5033050;28;20056;-89
2022/03/19 06:37:19;;;;;;;22.48;12.98;;;;;;;;;;5031450;28;20076;-89
2022/03/19 06:38:02;;;;;;;24.00;13.00;;;;;;;;;;5032502;28;20096;-87
2022/03/19 06:40:28;;;;;;;29.67;15.05;;;;;;;;;;5033596;28;20038;-88
2022/03/19 06:42:55;;;;;;;19.90;13.88;;;;;;;;;;5035393;28;20045;-88
2022/03/19 06:45:21;;;;;;;28.02;15.00;;;;;;;;;;5035346;28;20053;-88
2022/03/19 06:47:47;;;;;;;24.60;13.48;;;;;;;;;;5035358;28;20575;-89
2022/03/19 06:50:13;;;;;;;27.52;14.57;;;;;;;;;;5035257;28;20038;-89
2022/03/19 06:52:38;;;;;;;25.50;14.73;;;;;;;;;;5034122;28;20069;-88
2022/03/19 06:55:05;;;;;;;26.65;13.95;;;;;;;;;;5034559;28;20103;-88
2022/03/19 06:57:31;;;;;;;22.83;14.23;;;;;;;;;;5033511;28;20041;-88
2022/03/19 06:59:57;;;;;;;26.23;13.95;;;;;;;;;;5017307;28;20056;-89
2022/03/19 07:02:23;;;;;;;28.58;15.63;;;;;;;;;;5018959;28;20413;-89
2022/03/19 07:04:49;;;;;;;25.52;14.18;;;;;;;;;;5033977;28;20049;-89
2022/03/19 07:07:17;;;;;;;28.67;15.35;;;;;;;;;;5032847;28;20056;-87
2022/03/19 07:09:43;;;;;;;27.00;14.27;;;;;;;;;;5034756;28;20064;-89
2022/03/19 07:12:11;;;;;;;24.25;13.80;;;;;;;;;;5033601;28;20042;-90
2022/03/19 07:14:38;;;;;;;23.40;13.13;;;;;;;;;;5034833;28;20048;-90
2022/03/19 07:17:04;;;;;;;30.42;14.70;;;;;;;;;;5033775;28;20053;-89
2022/03/19 07:19:31;;;;;;;25.30;14.07;;;;;;;;;;5034297;28;20091;-89
2022/03/19 07:21:57;;;;;;;24.48;11.27;;;;;;;;;;5031434;28;20076;-90
2022/03/19 07:24:23;;;;;;;21.83;11.45;;;;;;;;;;5015232;28;20101;-89
2022/03/19 07:26:49;;;;;;;24.58;12.80;;;;;;;;;;5015450;28;20099;-87
2022/03/19 07:29:18;;;;;;;21.02;12.52;;;;;;;;;;5013360;28;20044;-89
2022/03/19 07:31:45;;;;;;;23.98;11.85;;;;;;;;;;5013714;28;20125;-88
2022/03/19 07:34:11;;;;;;;23.67;11.50;;;;;;;;;;5013640;28;20170;-89
2022/03/19 07:36:38;;;;;;;21.67;11.43;;;;;;;;;;5013535;28;20073;-88
2022/03/19 07:39:04;;;;;;;20.45;11.90;;;;;;;;;;5013617;28;20038;-88
2022/03/19 07:41:48;;;;;;;19.83;10.68;;;;;;;;;;5013149;28;20417;-88
2022/03/19 07:44:15;;;;;;;22.60;11.50;;;;;;;;;;5012822;28;20042;-89
2022/03/19 07:46:45;;;;;;;25.75;9.60;;;;;;;;;;5012298;28;20087;-87
2022/03/19 07:49:11;;;;;;;19.02;9.48;;;;;;;;;;5027540;28;20428;-89
2022/03/19 07:51:38;;;;;;;17.90;9.00;;;;;;;;;;5012286;28;20046;-88
2022/03/19 07:54:04;;;;;;;18.60;8.98;;;;;;;;;;5013740;28;20124;-89
2022/03/19 07:56:30;;;;;;;19.83;9.20;;;;;;;;;;5032705;28;20487;-88
2022/03/19 07:58:56;;;;;;;20.42;9.23;;;;;;;;;;5016642;28;20080;-88
2022/03/19 08:01:22;;;;;;;19.55;9.20;;;;;;;;;;5032687;28;20111;-88
2022/03/19 08:03:49;;;;;;;20.38;8.57;;;;;;;;;;5032579;28;20538;-88
2022/03/19 08:06:15;;;;;;;20.25;8.48;;;;;;;;;;5033972;28;20037;-89
2022/03/19 08:08:41;;;;;;;17.15;7.57;;;;;;;;;;5031809;28;20117;-89
2022/03/19 08:11:07;;;;;;;18.50;7.15;;;;;;;;;;5031886;28;20155;-89
2022/03/19 08:13:33;;;;;;;15.95;7.13;;;;;;;;;;5032451;28;20064;-88
2022/03/19 08:15:59;;;;;;;17.33;6.88;;;;;;;;;;5032992;28;20165;-87
2022/03/19 08:18:25;;;;;;;14.68;6.75;;;;;;;;;;5018029;28;20088;-88
2022/03/19 08:20:51;;;;;;;14.90;7.13;;;;;;;;;;5012764;28;20050;-87
2022/03/19 08:23:20;;;;;;;13.68;6.15;;;;;;;;;;5013406;28;20133;-88
2022/03/19 08:25:46;;;;;;;19.98;6.45;;;;;;;;;;5012619;28;20425;-86
2022/03/19 08:28:12;;;;;;;15.95;5.55;;;;;;;;;;5010436;28;20476;-88
2022/03/19 08:30:38;;;;;;;13.10;6.47;;;;;;;;;;5015809;28;20037;-89
2022/03/19 08:33:04;;;;;;;14.70;5.82;;;;;;;;;;5035677;28;20037;-88
2022/03/19 08:35:30;;;;;;;14.60;5.75;;;;;;;;;;5030024;28;20061;-88
2022/03/19 08:40:40;;;;;;;12.55;5.00;;;;;;;;;;5046927;28;20045;-90
2022/03/19 08:43:07;;;;;;;13.88;5.32;;;;;;;;;;5032906;28;20480;-90
2022/03/19 08:45:33;;;;;;;14.85;5.25;;;;;;;;;;5021534;28;20041;-88
2022/03/19 08:48:05;;;;;;;14.95;5.00;;;;;;;;;;5015641;28;20628;-89
2022/03/19 08:50:35;;;;;;;13.20;4.55;;;;;;;;;;5030075;28;20117;-88
2022/03/19 08:53:01;;;;;;;13.40;5.10;;;;;;;;;;5022821;28;20038;-88
2022/03/19 08:55:27;;;;;;;15.77;5.38;;;;;;;;;;5026428;28;20049;-88
2022/03/19 08:57:53;;;;;;;14.27;4.82;;;;;;;;;;5014602;28;20045;-89
2022/03/19 09:00:19;;;;;;;15.38;5.35;;;;;;;;;;5011076;28;20092;-89
2022/03/19 09:02:45;;;;;;;13.27;4.70;;;;;;;;;;5017759;28;20042;-88
2022/03/19 09:05:11;;;;;;;15.65;4.55;;;;;;;;;;5030844;28;20052;-87
2022/03/19 09:07:37;;;;;;;13.00;4.85;;;;;;;;;;5031635;28;20444;-86
2022/03/19 09:10:04;;;;;;;11.20;4.50;;;;;;;;;;5031562;28;20041;-85
2022/03/19 09:12:30;;;;;;;10.88;4.75;;;;;;;;;;5023935;28;20038;-84
2022/03/19 09:14:56;;;;;;;14.45;4.53;;;;;;;;;;5010467;28;20129;-88
2022/03/19 09:17:22;;;;;;;11.55;4.40;;;;;;;;;;5009745;28;20391;-88
2022/03/19 09:19:48;;;;;;;13.80;4.05;;;;;;;;;;5023251;28;20086;-89
2022/03/19 09:22:15;;;;;;;14.32;4.60;;;;;;;;;;5014131;28;20042;-89
2022/03/19 09:24:41;;;;;;;14.48;4.25;;;;;;;;;;5010850;28;20806;-90
2022/03/19 09:27:08;;;;;;;15.70;4.10;;;;;;;;;;5028479;28;20073;-88
2022/03/19 09:29:34;;;;;;;10.50;3.58;;;;;;;;;;5029167;28;20500;-90
2022/03/19 09:32:00;;;;;;;13.60;4.50;;;;;;;;;;5009998;28;20042;-87
2022/03/19 09:34:26;;;;;;;14.73;4.63;;;;;;;;;;5018151;28;20049;-89
2022/03/19 09:36:52;;;;;;;12.52;4.05;;;;;;;;;;5018857;28;20041;-89
2022/03/19 09:39:19;;;;;;;12.32;4.05;;;;;;;;;;5024875;28;20045;-87
2022/03/19 09:41:45;;;;;;;12.25;4.13;;;;;;;;;;5025618;28;20038;-88
2022/03/19 09:44:12;;;;;;;16.10;4.47;;;;;;;;;;5010692;28;20041;-90
2022/03/19 09:46:38;;;;;;;11.32;3.70;;;;;;;;;;5019195;28;20080;-87
2022/03/19 09:49:04;;;;;;;15.50;5.00;;;;;;;;;;5014161;28;20092;-88
2022/03/19 09:51:33;;;;;;;9.63;4.10;;;;;;;;;;5012806;28;20049;-88
2022/03/19 09:53:59;;;;;;;10.82;3.95;;;;;;;;;;5028592;28;20048;-89
2022/03/19 09:56:25;;;;;;;13.10;3.88;;;;;;;;;;5029671;28;20041;-88
2022/03/19 09:58:52;;;;;;;9.68;3.65;;;;;;;;;;5011437;28;20087;-91
2022/03/19 10:01:18;;;;;;;8.70;3.17;;;;;;;;;;5009381;28;20183;-87
2022/03/19 10:03:45;;;;;;;11.05;3.65;;;;;;;;;;5032155;28;20128;-88
2022/03/19 10:08:57;;;;;;;11.00;3.67;;;;;;;;;;5009599;28;20125;-89
2022/03/19 10:11:25;;;;;;;9.43;3.25;;;;;;;;;;5010028;28;20034;-88
2022/03/19 10:13:52;;;;;;;10.05;3.60;;;;;;;;;;5011908;28;20049;-90
2022/03/19 10:16:26;;;;;;;10.57;3.20;;;;;;;;;;5008452;28;20490;-90
2022/03/19 10:19:00;;;;;;;10.30;3.30;;;;;;;;;;5024394;28;20045;-87
2022/03/19 10:21:26;;;;;;;10.60;3.47;;;;;;;;;;5008401;28;20127;-90
2022/03/19 10:23:53;;;;;;;9.30;3.42;;;;;;;;;;5018769;28;20055;-90
2022/03/19 10:26:26;;;;;;;11.80;3.80;;;;;;;;;;5028670;28;20439;-89
2022/03/19 10:28:59;;;;;;;11.50;3.60;;;;;;;;;;5012286;28;20077;-91
2022/03/19 10:31:34;;;;;;;12.35;3.60;;;;;;;;;;5020316;28;20272;-90
2022/03/19 10:34:00;;;;;;;10.88;3.20;;;;;;;;;;5021841;28;20408;-90
2022/03/19 10:36:34;;;;;;;9.00;3.78;;;;;;;;;;5011413;28;20129;-92
2022/03/19 10:39:00;;;;;;;9.88;3.95;;;;;;;;;;5028731;28;20095;-89
2022/03/19 10:41:27;;;;;;;9.23;3.38;;;;;;;;;;5021327;28;20490;-89
2022/03/19 10:43:53;;;;;;;11.07;3.30;;;;;;;;;;5008307;28;20126;-89
2022/03/19 10:46:19;;;;;;;11.25;4.00;;;;;;;;;;5023768;28;20046;-90
2022/03/19 10:48:50;;;;;;;8.75;3.30;;;;;;;;;;5013207;28;20219;-88
2022/03/19 10:51:17;;;;;;;9.65;3.63;;;;;;;;;;5020319;28;20042;-89
2022/03/19 10:53:43;;;;;;;8.95;3.00;;;;;;;;;;5016414;28;20084;-84
2022/03/19 10:56:11;;;;;;;8.95;3.03;;;;;;;;;;5011797;28;20117;-90
2022/03/19 10:58:37;;;;;;;7.85;3.17;;;;;;;;;;5014269;28;20037;-92
2022/03/19 11:01:03;;;;;;;8.77;3.55;;;;;;;;;;5038260;28;20049;-88
2022/03/19 11:03:30;;;;;;;7.45;2.88;;;;;;;;;;5020078;28;20398;-89
2022/03/19 11:06:06;;;;;;;11.35;3.38;;;;;;;;;;5029676;28;20450;-90
2022/03/19 11:08:39;;;;;;;9.30;3.08;;;;;;;;;;5028900;28;20038;-88
2022/03/19 11:11:11;;;;;;;7.78;2.65;;;;;;;;;;5029407;28;20432;-88
2022/03/19 11:13:42;;;;;;;7.20;3.33;;;;;;;;;;5018063;28;20525;-89
2022/03/19 11:16:09;;;;;;;7.72;2.50;;;;;;;;;;5029560;28;20037;-90
2022/03/19 11:18:35;;;;;;;7.63;2.60;;;;;;;;;;5035302;28;20408;-88
2022/03/19 11:21:01;;;;;;;8.93;2.80;;;;;;;;;;5016920;28;20046;-89
2022/03/19 11:23:31;;;;;;;8.07;2.58;;;;;;;;;;5011934;28;20490;-88
2022/03/19 11:25:58;;;;;;;7.53;2.90;;;;;;;;;;5014526;28;20049;-90
2022/03/19 11:28:24;;;;;;;7.35;2.72;;;;;;;;;;5039571;28;20095;-88
2022/03/19 11:31:07;;;;;;;4.97;2.10;;;;;;;;;;5023479;28;20067;-87
2022/03/19 11:33:34;;;;;;;5.80;1.85;;;;;;;;;;5043934;28;20042;-88
2022/03/19 11:36:00;;;;;;;6.55;2.20;;;;;;;;;;5017892;28;20053;-90
2022/03/19 11:38:27;;;;;;;8.10;1.70;;;;;;;;;;5034892;28;20052;-90
2022/03/19 11:40:58;;;;;;;6.00;1.70;;;;;;;;;;5025696;28;20038;-90
2022/03/19 11:43:27;;;;;;;6.25;1.70;;;;;;;;;;5021709;28;20037;-90
2022/03/19 11:45:54;;;;;;;4.97;1.63;;;;;;;;;;5024055;28;20069;-88
2022/03/19 11:48:36;;;;;;;5.60;1.70;;;;;;;;;;5017312;28;20096;-89
2022/03/19 11:51:25;;;;;;;6.00;1.77;;;;;;;;;;5019043;28;20049;-86
2022/03/19 11:54:02;;;;;;;5.40;1.50;;;;;;;;;;5018434;28;20084;-91
2022/03/19 11:56:49;;;;;;;4.82;1.40;;;;;;;;;;5035781;28;20431;-94
2022/03/19 11:59:25;;;;;;;5.07;1.67;;;;;;;;;;5033852;28;20649;-90
2022/03/19 12:01:56;;;;;;;5.38;1.83;;;;;;;;;;5046319;28;20041;-86
2022/03/19 12:04:24;;;;;;;5.53;1.80;;;;;;;;;;5036737;28;20044;-89
2022/03/19 12:06:59;;;;;;;5.10;1.60;;;;;;;;;;5036408;28;20357;-89
2022/03/19 12:09:32;;;;;;;5.38;1.90;;;;;;;;;;5058777;28;20500;-91
2022/03/19 12:12:16;;;;;;;5.13;1.73;;;;;;;;;;5034795;28;20040;-88
2022/03/19 12:14:43;;;;;;;5.15;1.63;;;;;;;;;;5031619;28;20038;-88
2022/03/19 12:17:28;;;;;;;3.92;1.75;;;;;;;;;;5014013;28;20044;-89
2022/03/19 12:20:00;;;;;;;5.68;1.55;;;;;;;;;;5033735;28;20072;-88
2022/03/19 12:22:30;;;;;;;5.60;1.50;;;;;;;;;;5016806;28;20077;-88
2022/03/19 12:25:16;;;;;;;5.10;1.67;;;;;;;;;;5015955;28;20061;-90
2022/03/19 12:27:53;;;;;;;5.22;1.88;;;;;;;;;;5035425;28;20052;-88
2022/03/19 12:30:21;;;;;;;6.03;1.83;;;;;;;;;;5014329;28;20488;-87
2022/03/19 12:32:58;;;;;;;5.20;1.65;;;;;;;;;;5014487;28;20124;-89
2022/03/19 12:35:47;;;;;;;5.63;1.70;;;;;;;;;;5014175;28;20038;-89
2022/03/19 12:38:32;;;;;;;6.38;1.77;;;;;;;;;;5014349;28;20125;-87
2022/03/19 12:43:43;;;;;;;7.75;1.88;;;;;;;;;;5014892;28;20501;-89
2022/03/19 12:46:09;;;;;;;4.63;1.60;;;;;;;;;;5013637;28;20058;-90
2022/03/19 12:48:39;;;;;;;4.43;1.50;;;;;;;;;;5022698;28;20042;-86
2022/03/19 12:51:06;;;;;;;6.38;2.10;;;;;;;;;;5027829;28;20037;-90
2022/03/19 12:53:33;;;;;;;6.15;1.70;;;;;;;;;;5033027;28;20033;-89
2022/03/19 12:56:12;;;;;;;5.75;1.45;;;;;;;;;;5032558;28;20043;-89
2022/03/19 12:58:38;;;;;;;4.75;1.70;;;;;;;;;;5032778;28;20041;-89
2022/03/19 13:01:07;;;;;;;4.45;1.65;;;;;;;;;;5032848;28;20124;-89
2022/03/19 13:03:34;;;;;;;5.15;1.80;;;;;;;;;;5054266;28;20049;-88
2022/03/19 13:06:00;;;;;;;9.43;2.15;;;;;;;;;;5036856;28;20041;-86
2022/03/19 13:08:26;;;;;;;8.15;2.15;;;;;;;;;;5017222;28;20096;-89
2022/03/19 13:10:53;;;;;;;5.38;2.22;;;;;;;;;;5032677;28;20037;-88
2022/03/19 13:13:19;;;;;;;5.95;1.70;;;;;;;;;;5032476;28;20103;-91
2022/03/19 13:15:50;;;;;;;5.78;1.80;;;;;;;;;;5032721;28;20042;-88
2022/03/19 13:18:27;;;;;;;5.65;1.75;;;;;;;;;;5015739;28;20041;-89
2022/03/19 13:21:07;;;;;;;6.97;2.10;;;;;;;;;;5032696;28;20433;-90
2022/03/19 13:23:34;;;;;;;6.85;1.98;;;;;;;;;;5030816;28;20057;-88
2022/03/19 13:26:00;;;;;;;6.13;1.55;;;;;;;;;;5032061;28;20049;-87
2022/03/19 13:28:27;;;;;;;7.00;2.10;;;;;;;;;;5031537;28;20033;-90
2022/03/19 13:30:54;;;;;;;5.03;1.60;;;;;;;;;;5022351;28;20452;-89
2022/03/19 13:33:22;;;;;;;6.18;2.15;;;;;;;;;;5013023;28;20405;-88
2022/03/19 13:35:48;;;;;;;5.68;2.08;;;;;;;;;;5013853;28;20045;-89
2022/03/19 13:38:15;;;;;;;4.82;1.90;;;;;;;;;;5013544;28;20045;-88
2022/03/19 13:40:41;;;;;;;7.70;2.22;;;;;;;;;;5012583;28;20386;-89
2022/03/19 13:43:08;;;;;;;6.28;2.05;;;;;;;;;;5012916;28;20586;-87
2022/03/19 13:45:34;;;;;;;5.45;1.90;;;;;;;;;;5016496;28;20132;-88
2022/03/19 13:48:05;;;;;;;5.82;1.90;;;;;;;;;;5031749;28;20041;-87
2022/03/19 13:50:31;;;;;;;8.20;2.10;;;;;;;;;;5031794;28;20045;-87
2022/03/19 13:52:59;;;;;;;6.20;1.98;;;;;;;;;;5027318;28;20512;-88
2022/03/19 13:55:28;;;;;;;5.72;2.10;;;;;;;;;;5047054;28;20088;-90
2022/03/19 13:57:58;;;;;;;6.47;1.80;;;;;;;;;;5031983;28;20037;-90
2022/03/19 14:00:28;;;;;;;4.95;1.80;;;;;;;;;;5021003;28;20077;-90
2022/03/19 14:02:55;;;;;;;6.13;2.15;;;;;;;;;;5012581;28;20042;-89
2022/03/19 14:05:22;;;;;;;7.05;2.17;;;;;;;;;;5028793;28;20057;-89
2022/03/19 14:07:48;;;;;;;4.97;2.20;;;;;;;;;;5013224;28;20409;-88
2022/03/19 14:10:15;;;;;;;9.02;2.40;;;;;;;;;;5013014;28;20046;-89
2022/03/19 14:12:43;;;;;;;6.85;2.15;;;;;;;;;;5009210;28;20175;-89
2022/03/19 14:15:10;;;;;;;10.63;2.50;;;;;;;;;;5028075;28;20387;-90
2022/03/19 14:17:58;;;;;;;4.88;1.75;;;;;;;;;;5025902;28;20582;-90
2022/03/19 14:20:24;;;;;;;7.05;2.25;;;;;;;;;;5027228;28;20504;-90
2022/03/19 14:22:51;;;;;;;6.18;2.25;;;;;;;;;;5028144;28;20410;-89
2022/03/19 14:25:18;;;;;;;7.65;2.60;;;;;;;;;;5027482;28;20557;-90
2022/03/19 14:27:45;;;;;;;9.15;2.67;;;;;;;;;;5030587;28;20049;-90
2022/03/19 14:30:12;;;;;;;7.43;2.25;;;;;;;;;;5033526;28;20081;-90
2022/03/19 14:32:38;;;;;;;6.25;2.30;;;;;;;;;;5032490;28;20069;-91
2022/03/19 14:35:04;;;;;;;5.53;1.85;;;;;;;;;;5032424;28;20136;-90
2022/03/19 14:37:30;;;;;;;4.75;1.60;;;;;;;;;;5031036;28;20125;-90
2022/03/19 14:39:56;;;;;;;6.13;2.00;;;;;;;;;;5031889;28;20474;-89
2022/03/19 14:42:23;;;;;;;6.65;1.90;;;;;;;;;;5035629;28;20108;-89
2022/03/19 14:44:51;;;;;;;6.63;1.92;;;;;;;;;;5020703;28;20561;-91
2022/03/19 14:47:17;;;;;;;7.22;2.10;;;;;;;;;;5044840;28;20494;-91
2022/03/19 14:49:43;;;;;;;5.68;1.73;;;;;;;;;;5038780;28;20072;-90
2022/03/19 14:52:09;;;;;;;5.45;1.85;;;;;;;;;;5020409;28;20050;-90